Portada
METAR-TAF:

METAR-TAF

Aeropuertos :

Base Aérea de Morón

Morón de la Frontera, España

latitud: 37-09N, longitud: 005-37W, altitud: 87 m

Observación

El informe se hizo hace 2 horas y 40 minutos, a las 13:00 UTC
Viento 5 kt del norte-noroeste, variando entre oeste y norte-noreste
Temperatura 32°C
Humedad 36%
Presión 1015 hPa
Visibilidad 10 km o más
sin nubes por debajo de 1500 m y sin presencia de cumulonimbus.

METAR: LEMO 171300Z 33005KT 260V020 CAVOK 32/15 Q1015 NOSIG

Hora: 17:40 (15:40 UTC)

Pronóstico

El informe se hizo hace 1 hora y 40 minutos, a las 14:00 UTC
Pronóstico válido del 17 a las 15 UTC al 17 a las 24 UTC
Viento 4 kt del norte-noreste
Visibilidad 10 km o más
sin nubes por debajo de 1500 m y sin presencia de cumulonimbus.
Evolucionando progresivamente
del 17 a las 18 UTC al 17 a las 20 UTC
Viento 10 kt del suroeste

TAF: LEMO 171400Z 1715/1724 02004KT CAVOK BECMG 1718/1720 22010KT

Observaciones y pronósticos meteorológicos de más de 4000 aeropuertos (mensajes METAR y TAF).

Los puntos amarillos y rojos representan las estaciones disponibles.

Ponga el ratón en el punto deseado para ver el nombre de la estación.

Haga clic para ver las observaciones y los pronósticos meteorológicos.

Para cambiar el mapa : haga clic en los botones verdes con una cruz de color negro para hacer un zoom, en el botón verde con un guión para alejar o en las flechas verdes para mapas adyacentes.


METAR-TAF: